Time;durP1;ratioP1;P1;durP2;ratioP2;P2;SDS_P1;SDS_P2;PMS_P1;PMS_P2;Temp;Humidity;BMP_temperature;BMP_pressure;BME280_temperature;BME280_humidity;BME280_pressure;Samples;Min_cycle;Max_cycle;Signal;HPM_P1;HPM_P2
2022/07/11 00:00:49;;;;;;;2.20;2.10;;;16.10;99.90;;;;;;475900;250;29490;-70
2022/07/11 00:02:50;;;;;;;2.30;2.10;;;16.00;99.90;;;;;;475891;250;29026;-69
2022/07/11 00:04:51;;;;;;;2.07;1.90;;;16.00;99.90;;;;;;475919;250;29042;-69
2022/07/11 00:06:52;;;;;;;2.50;2.30;;;16.00;99.90;;;;;;475796;250;28950;-70
2022/07/11 00:08:54;;;;;;;2.10;2.00;;;16.00;99.90;;;;;;475926;250;28884;-69
2022/07/11 00:10:55;;;;;;;2.30;2.20;;;16.00;99.90;;;;;;475857;250;28866;-71
2022/07/11 00:12:56;;;;;;;2.27;2.17;;;16.00;99.90;;;;;;475866;250;28938;-70
2022/07/11 00:14:57;;;;;;;2.93;2.10;;;16.00;99.90;;;;;;475858;250;28851;-69
2022/07/11 00:16:59;;;;;;;2.63;2.43;;;16.00;99.90;;;;;;475886;250;28839;-73
2022/07/11 00:19:00;;;;;;;2.00;1.90;;;15.90;99.90;;;;;;475879;250;28841;-68
2022/07/11 00:21:01;;;;;;;2.60;2.40;;;16.00;99.90;;;;;;475941;250;29338;-70
2022/07/11 00:23:02;;;;;;;2.80;2.47;;;15.90;99.90;;;;;;475942;250;29585;-69
2022/07/11 00:25:04;;;;;;;2.57;2.37;;;15.90;99.90;;;;;;487844;242;29169;-70
2022/07/11 00:27:05;;;;;;;2.33;2.20;;;15.90;99.90;;;;;;498763;238;28812;-70
2022/07/11 00:29:06;;;;;;;2.50;2.30;;;15.90;99.90;;;;;;498736;238;28768;-69
2022/07/11 00:31:08;;;;;;;2.20;2.10;;;15.90;99.90;;;;;;498814;238;28932;-72
2022/07/11 00:33:09;;;;;;;2.50;2.40;;;15.90;99.90;;;;;;498790;238;28837;-69
2022/07/11 00:35:11;;;;;;;2.27;2.17;;;15.90;99.90;;;;;;498781;238;28812;-69
2022/07/11 00:37:11;;;;;;;2.50;2.30;;;15.90;99.90;;;;;;498746;238;28812;-69
2022/07/11 00:39:12;;;;;;;2.30;2.10;;;15.90;99.90;;;;;;498750;238;28877;-69
2022/07/11 00:41:14;;;;;;;2.10;2.00;;;15.90;99.90;;;;;;498669;238;28829;-70
2022/07/11 00:43:19;;;;;;;2.10;2.00;;;15.80;99.90;;;;;;498733;238;28772;-69
2022/07/11 00:45:16;;;;;;;2.57;2.37;;;15.80;99.90;;;;;;498752;238;29276;-70
2022/07/11 00:47:18;;;;;;;2.57;2.40;;;15.80;99.90;;;;;;498747;238;29378;-69
2022/07/11 00:49:19;;;;;;;2.60;2.40;;;15.80;99.90;;;;;;498776;238;29327;-69
2022/07/11 00:51:23;;;;;;;2.43;2.23;;;15.80;99.90;;;;;;498778;238;28835;-70
2022/07/11 00:53:24;;;;;;;2.30;2.10;;;15.80;99.90;;;;;;498736;238;29406;-70
2022/07/11 00:55:25;;;;;;;1.87;1.77;;;15.80;99.90;;;;;;498729;238;28762;-69
2022/07/11 00:57:27;;;;;;;3.10;2.50;;;15.80;99.90;;;;;;498755;238;28862;-69
2022/07/11 00:59:28;;;;;;;2.57;2.37;;;15.80;99.90;;;;;;498712;238;28802;-72
2022/07/11 01:01:29;;;;;;;2.10;2.00;;;15.70;99.90;;;;;;498776;238;28771;-69
2022/07/11 01:03:30;;;;;;;2.13;2.03;;;15.70;99.90;;;;;;498749;238;28882;-69
2022/07/11 01:05:32;;;;;;;1.97;1.87;;;15.60;99.90;;;;;;498719;238;28782;-69
2022/07/11 01:07:33;;;;;;;2.00;1.90;;;15.60;99.90;;;;;;498718;238;28832;-70
2022/07/11 01:09:34;;;;;;;2.50;2.30;;;15.50;99.90;;;;;;498752;238;28816;-71
2022/07/11 01:11:35;;;;;;;2.60;2.40;;;15.60;99.90;;;;;;498777;238;28782;-69
2022/07/11 01:13:37;;;;;;;2.20;2.10;;;15.60;99.90;;;;;;498729;238;29313;-70
2022/07/11 01:15:38;;;;;;;2.27;2.17;;;15.50;99.90;;;;;;498690;238;29226;-69
2022/07/11 01:17:39;;;;;;;2.43;2.33;;;15.50;99.90;;;;;;498707;238;29368;-69
2022/07/11 01:19:40;;;;;;;2.20;2.10;;;15.50;99.90;;;;;;498735;238;28853;-73
2022/07/11 01:21:42;;;;;;;2.40;2.20;;;15.50;99.90;;;;;;498798;238;28781;-69
2022/07/11 01:23:43;;;;;;;2.37;2.17;;;15.50;99.90;;;;;;498736;238;28915;-70
2022/07/11 01:25:44;;;;;;;2.37;2.27;;;15.50;99.90;;;;;;498774;238;28857;-69
2022/07/11 01:27:46;;;;;;;2.50;2.30;;;15.50;99.90;;;;;;498760;238;28800;-70
2022/07/11 01:29:47;;;;;;;2.30;2.17;;;15.50;99.90;;;;;;498762;238;28907;-72
2022/07/11 01:31:48;;;;;;;2.43;2.30;;;15.50;99.90;;;;;;498690;238;28797;-69
2022/07/11 01:33:49;;;;;;;2.27;2.10;;;15.50;99.90;;;;;;498655;238;29222;-70
2022/07/11 01:35:50;;;;;;;2.70;2.50;;;15.50;99.90;;;;;;498711;238;29235;-69
2022/07/11 01:37:52;;;;;;;2.30;2.20;;;15.50;99.90;;;;;;498516;238;29360;-70
2022/07/11 01:39:53;;;;;;;2.73;2.53;;;15.50;99.90;;;;;;498742;238;29335;-72
2022/07/11 01:41:55;;;;;;;2.47;2.27;;;15.50;99.90;;;;;;498744;238;28785;-69
2022/07/11 01:43:56;;;;;;;3.90;2.03;;;15.50;99.90;;;;;;498775;238;28886;-70
2022/07/11 01:45:57;;;;;;;2.40;2.13;;;15.50;99.90;;;;;;498769;238;28858;-69
2022/07/11 01:47:58;;;;;;;2.40;2.30;;;15.50;99.90;;;;;;498706;238;28812;-69
2022/07/11 01:49:59;;;;;;;2.20;2.10;;;15.50;99.90;;;;;;498769;238;28840;-72
2022/07/11 01:52:01;;;;;;;2.17;2.07;;;15.50;99.90;;;;;;498763;238;28780;-68
2022/07/11 01:54:02;;;;;;;2.10;1.90;;;15.50;99.90;;;;;;498657;238;28804;-70
2022/07/11 01:56:03;;;;;;;2.30;2.20;;;15.50;99.90;;;;;;498732;238;28803;-70
2022/07/11 01:58:04;;;;;;;2.80;2.40;;;15.50;99.90;;;;;;498791;238;28907;-69
2022/07/11 02:00:09;;;;;;;2.17;2.07;;;15.50;99.90;;;;;;498730;238;29357;-72
2022/07/11 02:02:07;;;;;;;2.30;2.10;;;15.50;99.90;;;;;;498753;238;29247;-69
2022/07/11 02:04:08;;;;;;;2.17;2.07;;;15.60;99.90;;;;;;498760;238;29399;-70
2022/07/11 02:06:09;;;;;;;2.27;2.17;;;15.60;99.90;;;;;;498736;238;28875;-69
2022/07/11 02:08:13;;;;;;;2.40;2.20;;;15.50;99.90;;;;;;498770;238;28793;-70
2022/07/11 02:10:14;;;;;;;1.87;1.77;;;15.50;99.90;;;;;;498758;238;28827;-70
2022/07/11 02:12:16;;;;;;;2.23;2.00;;;15.50;99.90;;;;;;498737;238;28774;-70
2022/07/11 02:14:17;;;;;;;2.20;2.10;;;15.50;99.90;;;;;;498771;238;28860;-69
2022/07/11 02:16:18;;;;;;;2.27;2.07;;;15.50;99.90;;;;;;498744;238;28877;-72
2022/07/11 02:18:20;;;;;;;2.10;2.00;;;15.40;99.90;;;;;;498732;238;29249;-69
2022/07/11 02:20:21;;;;;;;2.53;2.33;;;15.50;99.90;;;;;;498761;238;29396;-69
2022/07/11 02:22:22;;;;;;;2.00;1.90;;;15.50;99.90;;;;;;498767;238;29222;-69
2022/07/11 02:24:23;;;;;;;1.87;1.77;;;15.50;99.90;;;;;;498780;238;29284;-69
2022/07/11 02:26:24;;;;;;;2.40;2.30;;;15.50;99.90;;;;;;498740;238;28802;-71
2022/07/11 02:28:26;;;;;;;2.60;1.97;;;15.50;99.90;;;;;;498784;238;28776;-69
2022/07/11 02:30:27;;;;;;;2.10;2.00;;;15.50;99.90;;;;;;498765;238;28873;-70
2022/07/11 02:32:28;;;;;;;2.07;1.97;;;15.50;99.90;;;;;;498761;238;28824;-69
2022/07/11 02:34:29;;;;;;;2.27;2.13;;;15.50;99.90;;;;;;498751;238;28857;-70
2022/07/11 02:36:31;;;;;;;2.37;2.23;;;15.50;99.90;;;;;;498742;238;28914;-69
2022/07/11 02:38:32;;;;;;;2.77;2.60;;;15.50;99.90;;;;;;498770;238;28863;-69
2022/07/11 02:40:33;;;;;;;2.30;2.10;;;15.50;99.90;;;;;;498768;238;28813;-69
2022/07/11 02:42:35;;;;;;;2.50;2.30;;;15.50;99.90;;;;;;498761;238;29773;-72
2022/07/11 02:44:36;;;;;;;2.40;2.23;;;15.50;99.90;;;;;;498768;238;29271;-69
2022/07/11 02:46:37;;;;;;;2.17;2.07;;;15.50;99.90;;;;;;498768;238;29301;-70
2022/07/11 02:48:38;;;;;;;2.13;2.03;;;15.50;99.90;;;;;;498733;238;29303;-69
2022/07/11 02:50:40;;;;;;;2.00;1.90;;;15.50;99.90;;;;;;498787;238;28818;-70
2022/07/11 02:52:41;;;;;;;2.30;2.20;;;15.40;99.90;;;;;;498715;238;28935;-69
2022/07/11 02:54:42;;;;;;;2.30;2.20;;;15.40;99.90;;;;;;498739;238;28778;-69
2022/07/11 02:56:43;;;;;;;2.13;2.03;;;15.40;99.90;;;;;;498704;238;28910;-71
2022/07/11 02:58:45;;;;;;;2.10;2.00;;;15.40;99.90;;;;;;498684;238;28863;-69
2022/07/11 03:00:46;;;;;;;2.00;1.90;;;15.40;99.90;;;;;;498754;238;28817;-70
2022/07/11 03:02:47;;;;;;;2.10;2.00;;;15.40;99.90;;;;;;498550;238;28825;-69
2022/07/11 03:04:48;;;;;;;2.37;2.17;;;15.40;99.90;;;;;;498785;238;28770;-69
2022/07/11 03:06:50;;;;;;;2.27;2.17;;;15.40;99.90;;;;;;498765;238;28914;-70
2022/07/11 03:08:51;;;;;;;2.00;1.90;;;15.40;99.90;;;;;;498635;238;29236;-69
2022/07/11 03:10:52;;;;;;;2.10;2.00;;;15.40;99.90;;;;;;498766;238;29304;-70
2022/07/11 03:12:53;;;;;;;1.93;1.83;;;15.40;99.90;;;;;;498697;238;31243;-70
2022/07/11 03:14:55;;;;;;;2.13;2.03;;;15.40;99.90;;;;;;498768;238;28777;-69
2022/07/11 03:16:56;;;;;;;2.30;2.20;;;15.40;99.90;;;;;;498781;238;28792;-70
2022/07/11 03:18:57;;;;;;;1.80;1.70;;;15.40;99.90;;;;;;498744;238;28762;-69
2022/07/11 03:20:58;;;;;;;1.90;1.80;;;15.30;99.90;;;;;;498750;238;28801;-69
2022/07/11 03:23:00;;;;;;;1.90;1.80;;;15.30;99.90;;;;;;498749;238;28921;-69
2022/07/11 03:25:03;;;;;;;2.23;2.07;;;15.30;99.90;;;;;;498639;238;28784;-69
2022/07/11 03:27:02;;;;;;;2.30;2.10;;;15.30;99.90;;;;;;498714;238;28879;-70
2022/07/11 03:29:03;;;;;;;2.50;2.30;;;15.30;99.90;;;;;;498758;238;28910;-69
2022/07/11 03:31:05;;;;;;;2.03;1.90;;;15.20;99.90;;;;;;498765;238;28853;-69
2022/07/11 03:33:06;;;;;;;2.00;1.90;;;15.30;99.90;;;;;;498746;238;30016;-69
2022/07/11 03:37:26;;;;;;;3.07;2.43;;;15.30;99.90;;;;;;498754;238;29314;-70
2022/07/11 03:39:28;;;;;;;2.33;2.23;;;15.30;99.90;;;;;;498747;238;29249;-69
2022/07/11 03:41:29;;;;;;;2.00;1.90;;;15.30;99.90;;;;;;498766;238;28828;-69
2022/07/11 03:43:30;;;;;;;2.23;2.13;;;15.40;99.90;;;;;;498631;238;28955;-69
2022/07/11 03:45:31;;;;;;;2.47;2.27;;;15.40;99.90;;;;;;498778;238;28770;-70
2022/07/11 03:47:33;;;;;;;2.10;2.00;;;15.40;99.90;;;;;;498779;238;28830;-70
2022/07/11 03:49:34;;;;;;;2.33;2.20;;;15.30;99.90;;;;;;498714;238;28804;-69
2022/07/11 03:51:35;;;;;;;2.00;1.90;;;15.30;99.90;;;;;;498771;238;28907;-69
2022/07/11 03:53:36;;;;;;;2.70;2.50;;;15.30;99.90;;;;;;498692;238;28785;-69
2022/07/11 03:55:38;;;;;;;2.33;2.23;;;15.30;99.90;;;;;;498723;238;28785;-69
2022/07/11 03:57:39;;;;;;;2.20;2.00;;;15.30;99.90;;;;;;498784;238;28804;-70
2022/07/11 03:59:40;;;;;;;2.43;2.33;;;15.30;99.90;;;;;;498540;238;29378;-70
2022/07/11 04:01:42;;;;;;;2.27;2.17;;;15.30;99.90;;;;;;498751;238;29273;-68
2022/07/11 04:03:43;;;;;;;2.27;2.13;;;15.30;99.90;;;;;;498651;238;29361;-70
2022/07/11 04:05:44;;;;;;;2.63;2.47;;;15.40;99.90;;;;;;498707;238;28805;-69
2022/07/11 04:07:45;;;;;;;2.10;2.00;;;15.40;99.90;;;;;;498723;238;28802;-70
2022/07/11 04:09:46;;;;;;;1.97;1.87;;;15.40;99.90;;;;;;495667;237;28747;-69
2022/07/11 04:11:48;;;;;;;2.10;2.00;;;15.50;99.90;;;;;;494432;240;28770;-70
2022/07/11 04:13:49;;;;;;;2.60;2.40;;;15.50;99.90;;;;;;494469;240;29044;-71
2022/07/11 04:15:50;;;;;;;2.33;2.13;;;15.40;99.90;;;;;;494473;240;28768;-69
2022/07/11 04:17:51;;;;;;;2.63;2.43;;;15.30;99.90;;;;;;494489;240;29159;-70
2022/07/11 04:19:53;;;;;;;4.43;2.60;;;15.30;99.90;;;;;;494483;240;28681;-69
2022/07/11 04:21:54;;;;;;;2.50;2.30;;;15.30;99.90;;;;;;494450;240;28710;-69
2022/07/11 04:23:55;;;;;;;2.50;2.30;;;15.20;99.90;;;;;;494419;240;29252;-71
2022/07/11 04:25:56;;;;;;;2.20;2.10;;;15.20;99.90;;;;;;494492;240;29224;-69
2022/07/11 04:27:58;;;;;;;1.97;1.87;;;15.20;99.90;;;;;;494486;240;29311;-70
2022/07/11 04:29:59;;;;;;;2.50;2.30;;;15.30;99.90;;;;;;494497;240;29181;-69
2022/07/11 04:32:00;;;;;;;2.20;2.10;;;15.30;99.90;;;;;;494441;240;28736;-69
2022/07/11 04:34:02;;;;;;;2.30;2.10;;;15.30;99.90;;;;;;494498;240;28732;-70
2022/07/11 04:36:03;;;;;;;3.33;2.53;;;15.40;99.90;;;;;;494535;240;28673;-69
2022/07/11 04:38:04;;;;;;;2.30;2.20;;;15.50;99.90;;;;;;494491;240;28820;-70
2022/07/11 04:40:05;;;;;;;2.17;2.07;;;15.50;99.90;;;;;;494533;240;29942;-69
2022/07/11 04:42:07;;;;;;;2.93;2.27;;;15.60;99.90;;;;;;494533;240;29260;-69
2022/07/11 04:44:08;;;;;;;2.00;1.90;;;15.70;99.90;;;;;;494396;240;29198;-71
2022/07/11 04:46:09;;;;;;;2.63;2.43;;;15.70;99.90;;;;;;494553;240;28676;-69
2022/07/11 04:48:10;;;;;;;2.40;2.07;;;15.80;99.90;;;;;;494509;240;28806;-70
2022/07/11 04:50:12;;;;;;;2.40;2.00;;;15.90;99.90;;;;;;494498;240;28761;-68
2022/07/11 04:52:13;;;;;;;2.30;2.10;;;15.90;99.90;;;;;;494539;240;28669;-69
2022/07/11 04:54:15;;;;;;;3.03;2.00;;;15.90;99.90;;;;;;494522;240;28723;-71
2022/07/11 04:56:15;;;;;;;2.17;2.07;;;15.90;99.90;;;;;;494477;240;28757;-69
2022/07/11 04:58:17;;;;;;;2.53;2.33;;;15.90;99.90;;;;;;494512;240;28765;-69
2022/07/11 05:00:18;;;;;;;2.60;2.40;;;16.00;99.90;;;;;;494506;240;28677;-69
2022/07/11 05:02:19;;;;;;;2.77;2.57;;;16.00;99.90;;;;;;494528;240;28677;-69
2022/07/11 05:04:20;;;;;;;2.60;2.40;;;16.10;99.90;;;;;;494500;240;29220;-71
2022/07/11 05:06:22;;;;;;;2.30;2.20;;;16.10;99.90;;;;;;494530;240;29142;-69
2022/07/11 05:08:23;;;;;;;2.30;2.10;;;16.20;99.90;;;;;;494544;240;29283;-69
2022/07/11 05:10:24;;;;;;;2.40;2.30;;;16.30;99.90;;;;;;494461;240;30124;-69
2022/07/11 05:12:25;;;;;;;2.37;2.27;;;16.30;99.90;;;;;;494538;240;28756;-70
2022/07/11 05:14:27;;;;;;;2.50;2.40;;;16.40;99.90;;;;;;494513;240;28770;-72
2022/07/11 05:16:29;;;;;;;2.30;2.20;;;16.30;99.90;;;;;;494524;240;28679;-69
2022/07/11 05:18:29;;;;;;;2.67;2.50;;;16.30;99.90;;;;;;494436;240;28701;-69
2022/07/11 05:20:30;;;;;;;2.17;2.07;;;16.40;99.90;;;;;;494781;237;28665;-75
2022/07/11 05:22:32;;;;;;;2.50;2.30;;;16.40;99.90;;;;;;494519;240;28689;-69
2022/07/11 05:24:33;;;;;;;2.80;2.70;;;16.50;99.90;;;;;;499153;237;28840;-71
2022/07/11 05:26:34;;;;;;;3.00;2.70;;;16.40;99.90;;;;;;498507;236;28713;-69
2022/07/11 05:28:35;;;;;;;2.47;2.37;;;16.50;99.90;;;;;;498517;238;29192;-70
2022/07/11 05:30:37;;;;;;;3.03;2.87;;;16.60;99.90;;;;;;498496;238;29308;-69
2022/07/11 05:32:39;;;;;;;2.20;2.10;;;16.50;99.90;;;;;;499360;237;29155;-69
2022/07/11 05:34:40;;;;;;;2.47;2.27;;;16.60;99.90;;;;;;498553;237;28760;-69
2022/07/11 05:36:43;;;;;;;2.77;2.47;;;16.60;99.90;;;;;;500330;237;29144;-70
2022/07/11 05:38:43;;;;;;;2.40;2.30;;;16.70;99.90;;;;;;499571;236;29178;-69
2022/07/11 05:40:44;;;;;;;2.57;2.47;;;16.80;99.90;;;;;;499164;237;29319;-70
2022/07/11 05:42:45;;;;;;;3.23;2.93;;;16.80;99.90;;;;;;498514;238;29378;-73
2022/07/11 05:44:46;;;;;;;2.67;2.47;;;16.90;99.90;;;;;;499921;237;28726;-70
2022/07/11 05:46:48;;;;;;;2.97;2.67;;;17.00;99.90;;;;;;498939;237;28771;-70
2022/07/11 05:48:49;;;;;;;2.20;2.10;;;17.00;99.90;;;;;;498489;237;28802;-69
2022/07/11 05:50:50;;;;;;;2.47;2.27;;;17.00;99.90;;;;;;498488;237;28736;-70
2022/07/11 05:52:51;;;;;;;2.80;2.70;;;17.00;99.90;;;;;;500130;237;28712;-70
2022/07/11 05:54:53;;;;;;;2.93;2.73;;;17.10;99.90;;;;;;499521;237;28703;-70
2022/07/11 05:56:54;;;;;;;2.53;2.43;;;17.10;99.90;;;;;;499837;237;28784;-70
2022/07/11 05:58:55;;;;;;;2.50;2.37;;;17.10;99.90;;;;;;499702;237;28817;-69
2022/07/11 06:00:56;;;;;;;3.17;2.57;;;17.10;99.90;;;;;;500155;237;28741;-70
2022/07/11 06:02:58;;;;;;;2.57;2.37;;;17.10;99.90;;;;;;500241;237;29150;-72
2022/07/11 06:04:59;;;;;;;2.37;2.27;;;17.20;99.90;;;;;;500084;237;29265;-70
2022/07/11 06:07:00;;;;;;;2.23;2.13;;;17.20;99.90;;;;;;497939;237;29317;-70
2022/07/11 06:09:01;;;;;;;2.50;2.40;;;17.30;99.90;;;;;;500129;237;28600;-69
2022/07/11 06:11:03;;;;;;;2.83;2.63;;;17.30;99.90;;;;;;497523;235;28679;-70
2022/07/11 06:13:04;;;;;;;2.20;2.10;;;17.40;99.90;;;;;;494375;240;28719;-71
2022/07/11 06:15:05;;;;;;;2.50;2.30;;;17.40;99.90;;;;;;494359;240;29203;-70
2022/07/11 06:17:07;;;;;;;2.33;2.20;;;17.50;99.90;;;;;;494392;240;29215;-70
2022/07/11 06:19:08;;;;;;;2.13;2.03;;;17.50;99.90;;;;;;494334;240;29192;-70
2022/07/11 06:21:09;;;;;;;2.33;2.13;;;17.60;99.90;;;;;;494337;240;28781;-70
2022/07/11 06:23:10;;;;;;;3.23;2.50;;;17.70;99.90;;;;;;494360;240;28785;-73
2022/07/11 06:25:12;;;;;;;2.37;2.17;;;17.80;99.90;;;;;;494305;240;28792;-69
2022/07/11 06:27:13;;;;;;;2.50;2.30;;;17.90;99.90;;;;;;494367;240;28916;-70
2022/07/11 06:29:14;;;;;;;4.00;3.40;;;17.80;99.90;;;;;;494347;240;28809;-70
2022/07/11 06:31:16;;;;;;;3.57;2.50;;;17.60;99.90;;;;;;497137;237;28767;-70
2022/07/11 06:33:17;;;;;;;6.30;2.80;;;17.50;99.90;;;;;;500382;237;28715;-73
2022/07/11 06:35:18;;;;;;;3.80;2.50;;;17.50;99.90;;;;;;501115;237;29161;-70
2022/07/11 06:37:19;;;;;;;3.47;2.73;;;17.70;99.90;;;;;;500462;237;29241;-70
2022/07/11 06:39:20;;;;;;;2.30;2.10;;;17.80;99.90;;;;;;500217;237;29152;-70
2022/07/11 06:41:22;;;;;;;2.50;2.30;;;17.80;99.90;;;;;;500310;237;28755;-70
2022/07/11 06:43:23;;;;;;;2.73;2.53;;;17.80;99.90;;;;;;499845;235;28748;-73
2022/07/11 06:45:24;;;;;;;2.93;2.53;;;17.70;99.90;;;;;;501553;237;28703;-69
2022/07/11 06:47:26;;;;;;;3.27;2.20;;;17.50;99.90;;;;;;501097;237;28738;-70
2022/07/11 06:49:27;;;;;;;3.37;3.07;;;17.70;99.90;;;;;;501600;237;28657;-70
2022/07/11 06:51:28;;;;;;;2.97;2.77;;;17.40;99.90;;;;;;501575;237;28723;-69
2022/07/11 06:53:30;;;;;;;2.67;2.47;;;17.50;99.90;;;;;;501613;237;29059;-72
2022/07/11 06:55:30;;;;;;;2.80;2.60;;;17.70;99.90;;;;;;501529;237;28792;-70
2022/07/11 06:57:32;;;;;;;2.80;2.40;;;17.90;99.90;;;;;;501590;237;28774;-70
2022/07/11 06:59:33;;;;;;;2.80;2.03;;;18.00;99.90;;;;;;501619;237;29195;-70
2022/07/11 07:01:34;;;;;;;3.33;2.43;;;18.00;99.90;;;;;;501573;237;29220;-72
2022/07/11 07:03:35;;;;;;;2.60;2.47;;;18.00;99.90;;;;;;501584;237;29189;-73
2022/07/11 07:05:37;;;;;;;2.87;2.30;;;18.00;99.90;;;;;;501614;237;29221;-70
2022/07/11 07:07:38;;;;;;;2.43;2.13;;;18.10;99.90;;;;;;501571;237;28706;-70
2022/07/11 07:09:39;;;;;;;3.20;2.90;;;18.20;99.90;;;;;;501610;237;28665;-70
2022/07/11 07:11:40;;;;;;;5.20;2.90;;;17.90;99.90;;;;;;501616;237;28695;-70
2022/07/11 07:13:42;;;;;;;3.93;2.47;;;17.90;99.90;;;;;;501567;237;28704;-71
2022/07/11 07:15:43;;;;;;;2.83;2.63;;;18.20;99.90;;;;;;501627;237;28751;-70
2022/07/11 07:17:44;;;;;;;4.30;2.77;;;18.10;99.90;;;;;;501590;237;28718;-70
2022/07/11 07:19:45;;;;;;;8.47;3.20;;;17.90;99.90;;;;;;501613;237;28669;-70
2022/07/11 07:21:47;;;;;;;2.67;2.30;;;17.90;99.90;;;;;;501596;237;28791;-70
2022/07/11 07:23:48;;;;;;;2.57;2.37;;;18.00;99.90;;;;;;501606;237;29226;-72
2022/07/11 07:25:49;;;;;;;3.23;2.67;;;18.20;99.90;;;;;;501602;237;29234;-70
2022/07/11 07:27:50;;;;;;;3.23;2.93;;;18.00;99.90;;;;;;501631;237;29181;-70
2022/07/11 07:29:52;;;;;;;3.10;2.30;;;18.10;99.90;;;;;;501592;237;29157;-69
2022/07/11 07:31:56;;;;;;;4.20;2.53;;;18.20;99.90;;;;;;501630;237;28741;-70
2022/07/11 07:33:57;;;;;;;2.63;2.43;;;18.30;99.90;;;;;;501601;236;29246;-70
2022/07/11 07:35:58;;;;;;;2.60;2.40;;;18.40;99.90;;;;;;501633;237;29189;-71
2022/07/11 07:38:02;;;;;;;2.50;2.40;;;18.40;99.90;;;;;;501623;237;28667;-70
2022/07/11 07:40:04;;;;;;;2.53;2.33;;;18.40;99.90;;;;;;501618;237;28736;-70
2022/07/11 07:42:06;;;;;;;2.50;2.30;;;18.40;99.90;;;;;;501603;237;28706;-70
2022/07/11 07:44:07;;;;;;;3.63;2.30;;;18.50;99.90;;;;;;501510;237;28682;-70
2022/07/11 07:46:11;;;;;;;2.40;2.30;;;18.50;99.90;;;;;;501601;237;28664;-70
2022/07/11 07:48:09;;;;;;;2.90;2.60;;;18.40;99.90;;;;;;501398;237;28701;-73
2022/07/11 07:50:10;;;;;;;3.23;2.37;;;18.70;99.90;;;;;;501574;237;28675;-70
2022/07/11 07:52:11;;;;;;;2.93;2.73;;;18.90;99.90;;;;;;501610;237;28702;-71
2022/07/11 07:54:13;;;;;;;2.17;2.07;;;18.90;99.90;;;;;;501554;237;28764;-71
2022/07/11 07:56:14;;;;;;;1.97;1.87;;;18.90;99.90;;;;;;499594;235;29127;-70
2022/07/11 07:58:15;;;;;;;4.93;1.83;;;19.10;99.90;;;;;;498605;238;29412;-71
2022/07/11 08:02:36;;;;;;;2.20;1.80;;;18.90;99.90;;;;;;498734;238;29242;-70
2022/07/11 08:04:37;;;;;;;3.10;2.20;;;18.90;99.90;;;;;;498601;238;29371;-72
2022/07/11 08:06:38;;;;;;;1.80;1.70;;;18.80;99.90;;;;;;498601;238;29232;-70
2022/07/11 08:08:39;;;;;;;2.10;1.80;;;18.80;99.90;;;;;;498673;238;28796;-71
2022/07/11 08:10:41;;;;;;;1.87;1.77;;;18.80;99.90;;;;;;498615;238;28789;-70
2022/07/11 08:12:42;;;;;;;1.87;1.77;;;18.80;99.90;;;;;;498713;238;28780;-70
2022/07/11 08:14:43;;;;;;;1.93;1.83;;;19.00;99.90;;;;;;498632;238;28903;-72
2022/07/11 08:16:44;;;;;;;1.70;1.60;;;19.30;99.90;;;;;;498207;238;28840;-72
2022/07/11 08:18:46;;;;;;;2.00;1.90;;;19.50;99.90;;;;;;498646;238;28907;-70
2022/07/11 08:20:47;;;;;;;1.70;1.60;;;19.40;99.90;;;;;;498690;238;28778;-70
2022/07/11 08:22:48;;;;;;;1.70;1.60;;;19.50;99.90;;;;;;498678;238;29249;-70
2022/07/11 08:24:49;;;;;;;1.80;1.70;;;19.30;99.90;;;;;;498779;238;29304;-73
2022/07/11 08:26:51;;;;;;;2.70;1.80;;;19.20;99.90;;;;;;498741;238;29235;-70
2022/07/11 08:28:52;;;;;;;3.83;1.90;;;19.30;99.90;;;;;;498739;238;29367;-70
2022/07/11 08:30:53;;;;;;;1.93;1.70;;;19.30;99.90;;;;;;498768;238;28797;-70
2022/07/11 08:32:54;;;;;;;1.90;1.80;;;19.30;99.90;;;;;;498627;238;28832;-70
2022/07/11 08:34:56;;;;;;;2.00;1.80;;;19.30;99.90;;;;;;498639;238;28900;-72
2022/07/11 08:36:57;;;;;;;2.37;1.50;;;19.30;99.90;;;;;;498713;238;28795;-70
2022/07/11 08:38:58;;;;;;;1.83;1.73;;;19.40;99.90;;;;;;498628;238;28854;-71
2022/07/11 08:40:59;;;;;;;1.67;1.57;;;19.60;99.90;;;;;;498760;238;28817;-74
2022/07/11 08:43:01;;;;;;;2.67;1.83;;;19.50;99.90;;;;;;498706;238;28880;-70
2022/07/11 08:45:02;;;;;;;1.70;1.60;;;19.70;99.90;;;;;;498758;238;28880;-71
2022/07/11 08:47:03;;;;;;;3.23;1.67;;;19.70;99.90;;;;;;498749;238;29304;-69
2022/07/11 08:49:05;;;;;;;1.87;1.77;;;19.70;99.90;;;;;;498728;238;29304;-70
2022/07/11 08:51:07;;;;;;;1.80;1.70;;;19.60;99.90;;;;;;498740;238;29379;-73
2022/07/11 08:53:07;;;;;;;1.90;1.80;;;19.60;99.90;;;;;;498674;238;29239;-70
2022/07/11 08:55:08;;;;;;;1.97;1.87;;;19.60;99.90;;;;;;498711;238;28837;-72
2022/07/11 08:57:09;;;;;;;1.80;1.70;;;19.70;99.90;;;;;;498763;238;28823;-70
2022/07/11 08:59:11;;;;;;;1.90;1.63;;;19.70;99.90;;;;;;498719;238;28811;-70
2022/07/11 09:01:12;;;;;;;1.70;1.60;;;19.80;99.90;;;;;;498784;238;28894;-69
2022/07/11 09:03:13;;;;;;;1.83;1.73;;;19.50;99.90;;;;;;498533;238;28827;-70
2022/07/11 09:05:14;;;;;;;1.70;1.60;;;19.70;99.90;;;;;;498725;238;28923;-71
2022/07/11 09:07:16;;;;;;;1.33;1.33;;;20.10;99.90;;;;;;498778;238;28770;-71
2022/07/11 09:09:17;;;;;;;1.37;1.37;;;20.40;99.90;;;;;;498737;238;29349;-71
2022/07/11 09:11:18;;;;;;;1.80;1.70;;;20.70;99.90;;;;;;498530;238;29496;-73
2022/07/11 09:13:20;;;;;;;1.90;1.70;;;20.50;99.90;;;;;;498742;238;28825;-69
2022/07/11 09:15:21;;;;;;;1.40;1.30;;;20.20;99.90;;;;;;498692;238;28909;-70
2022/07/11 09:17:22;;;;;;;1.97;1.73;;;19.90;99.90;;;;;;498784;238;28762;-70
2022/07/11 09:19:23;;;;;;;1.70;1.60;;;19.70;99.90;;;;;;498736;238;28838;-70
2022/07/11 09:26:04;;;;;;;2.83;1.80;;;20.00;99.90;;;;;;498797;238;29213;-70
2022/07/11 09:28:05;;;;;;;1.40;1.30;;;20.10;99.90;;;;;;498763;238;28793;-70
2022/07/11 09:30:07;;;;;;;1.67;1.57;;;20.30;99.90;;;;;;498747;238;28856;-70
2022/07/11 09:32:08;;;;;;;1.63;1.53;;;20.40;99.90;;;;;;498748;238;28785;-70
2022/07/11 09:34:09;;;;;;;1.50;1.50;;;20.40;99.90;;;;;;498740;238;28793;-74
2022/07/11 09:36:10;;;;;;;1.70;1.60;;;19.80;99.90;;;;;;498738;238;28774;-70
2022/07/11 09:38:12;;;;;;;1.90;1.80;;;19.90;99.90;;;;;;498776;238;28847;-71
2022/07/11 09:40:13;;;;;;;1.90;1.80;;;20.20;99.90;;;;;;498693;238;28912;-70
2022/07/11 09:42:14;;;;;;;1.50;1.40;;;20.40;99.90;;;;;;498751;238;28787;-70
2022/07/11 09:44:15;;;;;;;1.97;1.87;;;20.60;99.90;;;;;;498791;238;28907;-73
2022/07/11 09:46:17;;;;;;;1.80;1.70;;;20.50;99.90;;;;;;498739;238;29236;-70
2022/07/11 09:48:18;;;;;;;2.10;1.90;;;20.20;99.90;;;;;;498753;238;29279;-71
2022/07/11 09:50:19;;;;;;;1.80;1.70;;;20.50;99.90;;;;;;498718;238;29314;-70
2022/07/11 09:52:20;;;;;;;2.07;1.97;;;20.80;99.90;;;;;;498514;238;28809;-70
2022/07/11 09:54:22;;;;;;;2.00;1.90;;;20.40;99.90;;;;;;498639;238;28806;-73
2022/07/11 09:56:23;;;;;;;1.73;1.63;;;20.60;99.90;;;;;;498682;238;28899;-70
2022/07/11 09:58:24;;;;;;;2.00;1.90;;;20.70;99.90;;;;;;498732;238;28843;-71
2022/07/11 10:00:25;;;;;;;2.07;1.97;;;20.80;99.90;;;;;;498743;238;28895;-70
2022/07/11 10:02:27;;;;;;;1.90;1.80;;;21.10;99.90;;;;;;498764;238;28804;-70
2022/07/11 10:04:28;;;;;;;1.80;1.70;;;21.30;99.90;;;;;;498705;238;28921;-73
2022/07/11 10:06:29;;;;;;;1.97;1.87;;;21.10;99.90;;;;;;498732;238;28774;-70
2022/07/11 10:08:33;;;;;;;2.40;2.20;;;20.70;99.90;;;;;;498785;238;28811;-70
2022/07/11 10:10:32;;;;;;;2.53;2.43;;;20.50;99.90;;;;;;498728;238;29212;-71
2022/07/11 10:12:33;;;;;;;2.57;2.37;;;20.90;99.90;;;;;;498710;238;29233;-70
2022/07/11 10:14:34;;;;;;;2.40;2.20;;;21.00;99.90;;;;;;498751;238;29296;-73
2022/07/11 10:16:35;;;;;;;2.10;2.00;;;20.60;99.90;;;;;;498641;238;28808;-70
2022/07/11 10:18:37;;;;;;;2.27;2.13;;;20.90;99.90;;;;;;498752;238;28799;-71
2022/07/11 10:20:38;;;;;;;2.10;2.00;;;20.90;99.90;;;;;;498785;238;28849;-70
2022/07/11 10:22:39;;;;;;;2.20;2.10;;;21.00;99.90;;;;;;498678;238;28901;-70
2022/07/11 10:24:40;;;;;;;2.30;2.20;;;20.70;99.90;;;;;;498779;238;28889;-73
2022/07/11 10:26:42;;;;;;;2.10;2.00;;;20.70;99.90;;;;;;498728;238;28836;-70
2022/07/11 10:28:44;;;;;;;2.23;2.03;;;20.80;99.90;;;;;;498743;238;28816;-71
2022/07/11 10:30:45;;;;;;;2.20;2.10;;;20.90;99.90;;;;;;498769;238;28773;-70
2022/07/11 10:32:45;;;;;;;2.37;2.23;;;21.10;99.90;;;;;;498686;238;28813;-70
2022/07/11 10:34:47;;;;;;;2.10;2.00;;;21.20;99.90;;;;;;498766;238;29455;-73
2022/07/11 10:36:48;;;;;;;2.30;2.10;;;21.20;99.90;;;;;;498743;238;29197;-70
2022/07/11 10:38:49;;;;;;;2.30;2.20;;;21.20;99.90;;;;;;498777;238;29288;-70
2022/07/11 10:40:50;;;;;;;2.10;2.00;;;21.00;99.90;;;;;;498744;238;29955;-70